Aviation Digital Data Service (ADDS)

Output produced by METARs form (1146 UTC 25 June 2019)
found at http://www.aviationweather.gov/metar/data/
 
METAR text: OIAA 251100Z 31012KT CAVOK 48/05 Q1001
Conditions at: OIAA (ABADAN INTL AIRP, IR) observed 1100 UTC 25 June 2019
Temperature: 48.0°C (118°F)
Dewpoint: 5.0°C (41°F) [RH =  8%]
Pressure (altimeter): 29.56 inches Hg (1001.0 mb)
Winds: from the NW (310 degrees) at 14 MPH (12 knots; 6.2 m/s)
Visibility: 6 or more miles (10+ km)
Ceiling: ceiling and visibility are OK
Clouds: unknown
Weather: no significant weather observed at this time

METAR text: OIAA 251000Z 31012KT CAVOK 48/05 Q1002
Conditions at: OIAA (ABADAN INTL AIRP, IR) observed 1000 UTC 25 June 2019
Temperature: 48.0°C (118°F)
Dewpoint: 5.0°C (41°F) [RH =  8%]
Pressure (altimeter): 29.59 inches Hg (1002.0 mb)
Winds: from the NW (310 degrees) at 14 MPH (12 knots; 6.2 m/s)
Visibility: 6 or more miles (10+ km)
Ceiling: ceiling and visibility are OK
Clouds: unknown
Weather: no significant weather observed at this time

METAR text: OIAA 250900Z 33010KT CAVOK 47/M02 Q1002
Conditions at: OIAA (ABADAN INTL AIRP, IR) observed 0900 UTC 25 June 2019
Temperature: 47.0°C (117°F)
Dewpoint: -2.0°C (28°F) [RH =  5%]
Pressure (altimeter): 29.59 inches Hg (1002.0 mb)
Winds: from the NNW (330 degrees) at 12 MPH (10 knots; 5.1 m/s)
Visibility: 6 or more miles (10+ km)
Ceiling: ceiling and visibility are OK
Clouds: unknown
Weather: no significant weather observed at this time

METAR text: OIAA 250800Z 30010KT CAVOK 46/06 Q1002
Conditions at: OIAA (ABADAN INTL AIRP, IR) observed 0800 UTC 25 June 2019
Temperature: 46.0°C (115°F)
Dewpoint: 6.0°C (43°F) [RH =  9%]
Pressure (altimeter): 29.59 inches Hg (1002.0 mb)
Winds: from the WNW (300 degrees) at 12 MPH (10 knots; 5.1 m/s)
Visibility: 6 or more miles (10+ km)
Ceiling: ceiling and visibility are OK
Clouds: unknown
Weather: no significant weather observed at this time

METAR text: OIAA 250700Z 33010KT CAVOK 42/07 Q1002
Conditions at: OIAA (ABADAN INTL AIRP, IR) observed 0700 UTC 25 June 2019
Temperature: 42.0°C (108°F)
Dewpoint: 7.0°C (45°F) [RH = 12%]
Pressure (altimeter): 29.59 inches Hg (1002.0 mb)
Winds: from the NNW (330 degrees) at 12 MPH (10 knots; 5.1 m/s)
Visibility: 6 or more miles (10+ km)
Ceiling: ceiling and visibility are OK
Clouds: unknown
Weather: no significant weather observed at this time

METAR text: OIAA 250600Z 31010KT CAVOK 40/10 Q1002
Conditions at: OIAA (ABADAN INTL AIRP, IR) observed 0600 UTC 25 June 2019
Temperature: 40.0°C (104°F)
Dewpoint: 10.0°C (50°F) [RH = 17%]
Pressure (altimeter): 29.59 inches Hg (1002.0 mb)
Winds: from the NW (310 degrees) at 12 MPH (10 knots; 5.1 m/s)
Visibility: 6 or more miles (10+ km)
Ceiling: ceiling and visibility are OK
Clouds: unknown
Weather: no significant weather observed at this time

METAR text: OIAA 250500Z 31006KT CAVOK 36/14 Q1002
Conditions at: OIAA (ABADAN INTL AIRP, IR) observed 0500 UTC 25 June 2019
Temperature: 36.0°C (97°F)
Dewpoint: 14.0°C (57°F) [RH = 27%]
Pressure (altimeter): 29.59 inches Hg (1002.0 mb)
Winds: from the NW (310 degrees) at 7 MPH (6 knots; 3.1 m/s)
Visibility: 6 or more miles (10+ km)
Ceiling: ceiling and visibility are OK
Clouds: unknown
Weather: no significant weather observed at this time

METAR text: OIAA 250400Z 31004KT CAVOK 34/16 Q1002
Conditions at: OIAA (ABADAN INTL AIRP, IR) observed 0400 UTC 25 June 2019
Temperature: 34.0°C (93°F)
Dewpoint: 16.0°C (61°F) [RH = 34%]
Pressure (altimeter): 29.59 inches Hg (1002.0 mb)
Winds: from the NW (310 degrees) at 5 MPH (4 knots; 2.1 m/s)
Visibility: 6 or more miles (10+ km)
Ceiling: ceiling and visibility are OK
Clouds: unknown
Weather: no significant weather observed at this time

METAR text: OIAA 250300Z 29004KT CAVOK 32/15 Q1001
Conditions at: OIAA (ABADAN INTL AIRP, IR) observed 0300 UTC 25 June 2019
Temperature: 32.0°C (90°F)
Dewpoint: 15.0°C (59°F) [RH = 36%]
Pressure (altimeter): 29.56 inches Hg (1001.0 mb)
Winds: from the WNW (290 degrees) at 5 MPH (4 knots; 2.1 m/s)
Visibility: 6 or more miles (10+ km)
Ceiling: ceiling and visibility are OK
Clouds: unknown
Weather: no significant weather observed at this time

METAR text: OIAA 250200Z 30006KT CAVOK 32/13 Q1001
Conditions at: OIAA (ABADAN INTL AIRP, IR) observed 0200 UTC 25 June 2019
Temperature: 32.0°C (90°F)
Dewpoint: 13.0°C (55°F) [RH = 32%]
Pressure (altimeter): 29.56 inches Hg (1001.0 mb)
Winds: from the WNW (300 degrees) at 7 MPH (6 knots; 3.1 m/s)
Visibility: 6 or more miles (10+ km)
Ceiling: ceiling and visibility are OK
Clouds: unknown
Weather: no significant weather observed at this time

METAR text: OIAA 250100Z 31008KT CAVOK 33/13 Q1000
Conditions at: OIAA (ABADAN INTL AIRP, IR) observed 0100 UTC 25 June 2019
Temperature: 33.0°C (91°F)
Dewpoint: 13.0°C (55°F) [RH = 30%]
Pressure (altimeter): 29.53 inches Hg (1000.0 mb)
Winds: from the NW (310 degrees) at 9 MPH (8 knots; 4.1 m/s)
Visibility: 6 or more miles (10+ km)
Ceiling: ceiling and visibility are OK
Clouds: unknown
Weather: no significant weather observed at this time

METAR text: OIAA 250000Z 30008KT CAVOK 33/16 Q1000
Conditions at: OIAA (ABADAN INTL AIRP, IR) observed 0000 UTC 25 June 2019
Temperature: 33.0°C (91°F)
Dewpoint: 16.0°C (61°F) [RH = 36%]
Pressure (altimeter): 29.53 inches Hg (1000.0 mb)
Winds: from the WNW (300 degrees) at 9 MPH (8 knots; 4.1 m/s)
Visibility: 6 or more miles (10+ km)
Ceiling: ceiling and visibility are OK
Clouds: unknown
Weather: no significant weather observed at this time

METAR text: OIAA 242300Z 30010KT CAVOK 35/11 Q1000
Conditions at: OIAA (ABADAN INTL AIRP, IR) observed 2300 UTC 24 June 2019
Temperature: 35.0°C (95°F)
Dewpoint: 11.0°C (52°F) [RH = 23%]
Pressure (altimeter): 29.53 inches Hg (1000.0 mb)
Winds: from the WNW (300 degrees) at 12 MPH (10 knots; 5.1 m/s)
Visibility: 6 or more miles (10+ km)
Ceiling: ceiling and visibility are OK
Clouds: unknown
Weather: no significant weather observed at this time

METAR text: OIAA 242200Z 33006KT CAVOK 36/14 Q1000
Conditions at: OIAA (ABADAN INTL AIRP, IR) observed 2200 UTC 24 June 2019
Temperature: 36.0°C (97°F)
Dewpoint: 14.0°C (57°F) [RH = 27%]
Pressure (altimeter): 29.53 inches Hg (1000.0 mb)
Winds: from the NNW (330 degrees) at 7 MPH (6 knots; 3.1 m/s)
Visibility: 6 or more miles (10+ km)
Ceiling: ceiling and visibility are OK
Clouds: unknown
Weather: no significant weather observed at this time

METAR text: OIAA 242100Z 28010KT CAVOK 37/10 Q1000
Conditions at: OIAA (ABADAN INTL AIRP, IR) observed 2100 UTC 24 June 2019
Temperature: 37.0°C (99°F)
Dewpoint: 10.0°C (50°F) [RH = 20%]
Pressure (altimeter): 29.53 inches Hg (1000.0 mb)
Winds: from the W (280 degrees) at 12 MPH (10 knots; 5.1 m/s)
Visibility: 6 or more miles (10+ km)
Ceiling: ceiling and visibility are OK
Clouds: unknown
Weather: no significant weather observed at this time

METAR text: OIAA 242000Z 28004KT CAVOK 36/12 Q1001
Conditions at: OIAA (ABADAN INTL AIRP, IR) observed 2000 UTC 24 June 2019
Temperature: 36.0°C (97°F)
Dewpoint: 12.0°C (54°F) [RH = 24%]
Pressure (altimeter): 29.56 inches Hg (1001.0 mb)
Winds: from the W (280 degrees) at 5 MPH (4 knots; 2.1 m/s)
Visibility: 6 or more miles (10+ km)
Ceiling: ceiling and visibility are OK
Clouds: unknown
Weather: no significant weather observed at this time

METAR text: OIAA 241900Z 30006KT CAVOK 37/17 Q1001
Conditions at: OIAA (ABADAN INTL AIRP, IR) observed 1900 UTC 24 June 2019
Temperature: 37.0°C (99°F)
Dewpoint: 17.0°C (63°F) [RH = 31%]
Pressure (altimeter): 29.56 inches Hg (1001.0 mb)
Winds: from the WNW (300 degrees) at 7 MPH (6 knots; 3.1 m/s)
Visibility: 6 or more miles (10+ km)
Ceiling: ceiling and visibility are OK
Clouds: unknown
Weather: no significant weather observed at this time

METAR text: OIAA 241800Z 31004KT CAVOK 38/14 Q1001
Conditions at: OIAA (ABADAN INTL AIRP, IR) observed 1800 UTC 24 June 2019
Temperature: 38.0°C (100°F)
Dewpoint: 14.0°C (57°F) [RH = 24%]
Pressure (altimeter): 29.56 inches Hg (1001.0 mb)
Winds: from the NW (310 degrees) at 5 MPH (4 knots; 2.1 m/s)
Visibility: 6 or more miles (10+ km)
Ceiling: ceiling and visibility are OK
Clouds: unknown
Weather: no significant weather observed at this time

METAR text: OIAA 241700Z 31006KT CAVOK 40/11 Q1001
Conditions at: OIAA (ABADAN INTL AIRP, IR) observed 1700 UTC 24 June 2019
Temperature: 40.0°C (104°F)
Dewpoint: 11.0°C (52°F) [RH = 18%]
Pressure (altimeter): 29.56 inches Hg (1001.0 mb)
Winds: from the NW (310 degrees) at 7 MPH (6 knots; 3.1 m/s)
Visibility: 6 or more miles (10+ km)
Ceiling: ceiling and visibility are OK
Clouds: unknown
Weather: no significant weather observed at this time

METAR text: OIAA 241600Z 29006KT CAVOK 42/14 Q1001
Conditions at: OIAA (ABADAN INTL AIRP, IR) observed 1600 UTC 24 June 2019
Temperature: 42.0°C (108°F)
Dewpoint: 14.0°C (57°F) [RH = 20%]
Pressure (altimeter): 29.56 inches Hg (1001.0 mb)
Winds: from the WNW (290 degrees) at 7 MPH (6 knots; 3.1 m/s)
Visibility: 6 or more miles (10+ km)
Ceiling: ceiling and visibility are OK
Clouds: unknown
Weather: no significant weather observed at this time

METAR text: OIAA 241500Z 30008KT CAVOK 46/14 Q1000
Conditions at: OIAA (ABADAN INTL AIRP, IR) observed 1500 UTC 24 June 2019
Temperature: 46.0°C (115°F)
Dewpoint: 14.0°C (57°F) [RH = 16%]
Pressure (altimeter): 29.53 inches Hg (1000.0 mb)
Winds: from the WNW (300 degrees) at 9 MPH (8 knots; 4.1 m/s)
Visibility: 6 or more miles (10+ km)
Ceiling: ceiling and visibility are OK
Clouds: unknown
Weather: no significant weather observed at this time

METAR text: OIAA 241400Z 29008KT CAVOK 47/13 Q1000
Conditions at: OIAA (ABADAN INTL AIRP, IR) observed 1400 UTC 24 June 2019
Temperature: 47.0°C (117°F)
Dewpoint: 13.0°C (55°F) [RH = 14%]
Pressure (altimeter): 29.53 inches Hg (1000.0 mb)
Winds: from the WNW (290 degrees) at 9 MPH (8 knots; 4.1 m/s)
Visibility: 6 or more miles (10+ km)
Ceiling: ceiling and visibility are OK
Clouds: unknown
Weather: no significant weather observed at this time

METAR text: OIAA 241300Z 30006KT CAVOK 48/12 Q1001
Conditions at: OIAA (ABADAN INTL AIRP, IR) observed 1300 UTC 24 June 2019
Temperature: 48.0°C (118°F)
Dewpoint: 12.0°C (54°F) [RH = 13%]
Pressure (altimeter): 29.56 inches Hg (1001.0 mb)
Winds: from the WNW (300 degrees) at 7 MPH (6 knots; 3.1 m/s)
Visibility: 6 or more miles (10+ km)
Ceiling: ceiling and visibility are OK
Clouds: unknown
Weather: no significant weather observed at this time

METAR text: OIAA 241200Z 30008KT CAVOK 47/13 Q1001
Conditions at: OIAA (ABADAN INTL AIRP, IR) observed 1200 UTC 24 June 2019
Temperature: 47.0°C (117°F)
Dewpoint: 13.0°C (55°F) [RH = 14%]
Pressure (altimeter): 29.56 inches Hg (1001.0 mb)
Winds: from the WNW (300 degrees) at 9 MPH (8 knots; 4.1 m/s)
Visibility: 6 or more miles (10+ km)
Ceiling: ceiling and visibility are OK
Clouds: unknown
Weather: no significant weather observed at this time

METAR text: OIAA 241100Z 30010KT CAVOK 47/12 Q1001
Conditions at: OIAA (ABADAN INTL AIRP, IR) observed 1100 UTC 24 June 2019
Temperature: 47.0°C (117°F)
Dewpoint: 12.0°C (54°F) [RH = 13%]
Pressure (altimeter): 29.56 inches Hg (1001.0 mb)
Winds: from the WNW (300 degrees) at 12 MPH (10 knots; 5.1 m/s)
Visibility: 6 or more miles (10+ km)
Ceiling: ceiling and visibility are OK
Clouds: unknown
Weather: no significant weather observed at this time

METAR text: OIAA 241030Z 30008KT CAVOK 47/13 Q1001
Conditions at: OIAA (ABADAN INTL AIRP, IR) observed 1030 UTC 24 June 2019
Temperature: 47.0°C (117°F)
Dewpoint: 13.0°C (55°F) [RH = 14%]
Pressure (altimeter): 29.56 inches Hg (1001.0 mb)
Winds: from the WNW (300 degrees) at 9 MPH (8 knots; 4.1 m/s)
Visibility: 6 or more miles (10+ km)
Ceiling: ceiling and visibility are OK
Clouds: unknown
Weather: no significant weather observed at this time

METAR text: OIAA 241000Z 30008KT CAVOK 47/13 Q1001
Conditions at: OIAA (ABADAN INTL AIRP, IR) observed 1000 UTC 24 June 2019
Temperature: 47.0°C (117°F)
Dewpoint: 13.0°C (55°F) [RH = 14%]
Pressure (altimeter): 29.56 inches Hg (1001.0 mb)
Winds: from the WNW (300 degrees) at 9 MPH (8 knots; 4.1 m/s)
Visibility: 6 or more miles (10+ km)
Ceiling: ceiling and visibility are OK
Clouds: unknown
Weather: no significant weather observed at this time

METAR text: OIAA 240900Z 30010KT CAVOK 47/10 Q1002
Conditions at: OIAA (ABADAN INTL AIRP, IR) observed 0900 UTC 24 June 2019
Temperature: 47.0°C (117°F)
Dewpoint: 10.0°C (50°F) [RH = 12%]
Pressure (altimeter): 29.59 inches Hg (1002.0 mb)
Winds: from the WNW (300 degrees) at 12 MPH (10 knots; 5.1 m/s)
Visibility: 6 or more miles (10+ km)
Ceiling: ceiling and visibility are OK
Clouds: unknown
Weather: no significant weather observed at this time

METAR text: OIAA 240800Z 29010KT CAVOK 45/13 Q1002
Conditions at: OIAA (ABADAN INTL AIRP, IR) observed 0800 UTC 24 June 2019
Temperature: 45.0°C (113°F)
Dewpoint: 13.0°C (55°F) [RH = 16%]
Pressure (altimeter): 29.59 inches Hg (1002.0 mb)
Winds: from the WNW (290 degrees) at 12 MPH (10 knots; 5.1 m/s)
Visibility: 6 or more miles (10+ km)
Ceiling: ceiling and visibility are OK
Clouds: unknown
Weather: no significant weather observed at this time

METAR text: OIAA 240700Z 31010KT CAVOK 43/15 Q1002
Conditions at: OIAA (ABADAN INTL AIRP, IR) observed 0700 UTC 24 June 2019
Temperature: 43.0°C (109°F)
Dewpoint: 15.0°C (59°F) [RH = 20%]
Pressure (altimeter): 29.59 inches Hg (1002.0 mb)
Winds: from the NW (310 degrees) at 12 MPH (10 knots; 5.1 m/s)
Visibility: 6 or more miles (10+ km)
Ceiling: ceiling and visibility are OK
Clouds: unknown
Weather: no significant weather observed at this time

METAR text: OIAA 240600Z 32008KT CAVOK 41/15 Q1002
Conditions at: OIAA (ABADAN INTL AIRP, IR) observed 0600 UTC 24 June 2019
Temperature: 41.0°C (106°F)
Dewpoint: 15.0°C (59°F) [RH = 22%]
Pressure (altimeter): 29.59 inches Hg (1002.0 mb)
Winds: from the NW (320 degrees) at 9 MPH (8 knots; 4.1 m/s)
Visibility: 6 or more miles (10+ km)
Ceiling: ceiling and visibility are OK
Clouds: unknown
Weather: no significant weather observed at this time

METAR text: OIAA 240500Z 34008KT CAVOK 37/16 Q1002
Conditions at: OIAA (ABADAN INTL AIRP, IR) observed 0500 UTC 24 June 2019
Temperature: 37.0°C (99°F)
Dewpoint: 16.0°C (61°F) [RH = 29%]
Pressure (altimeter): 29.59 inches Hg (1002.0 mb)
Winds: from the NNW (340 degrees) at 9 MPH (8 knots; 4.1 m/s)
Visibility: 6 or more miles (10+ km)
Ceiling: ceiling and visibility are OK
Clouds: unknown
Weather: no significant weather observed at this time

METAR text: OIAA 240400Z 33006KT CAVOK 34/16 Q1002
Conditions at: OIAA (ABADAN INTL AIRP, IR) observed 0400 UTC 24 June 2019
Temperature: 34.0°C (93°F)
Dewpoint: 16.0°C (61°F) [RH = 34%]
Pressure (altimeter): 29.59 inches Hg (1002.0 mb)
Winds: from the NNW (330 degrees) at 7 MPH (6 knots; 3.1 m/s)
Visibility: 6 or more miles (10+ km)
Ceiling: ceiling and visibility are OK
Clouds: unknown
Weather: no significant weather observed at this time

METAR text: OIAA 240300Z 33004KT CAVOK 32/14 Q1002
Conditions at: OIAA (ABADAN INTL AIRP, IR) observed 0300 UTC 24 June 2019
Temperature: 32.0°C (90°F)
Dewpoint: 14.0°C (57°F) [RH = 34%]
Pressure (altimeter): 29.59 inches Hg (1002.0 mb)
Winds: from the NNW (330 degrees) at 5 MPH (4 knots; 2.1 m/s)
Visibility: 6 or more miles (10+ km)
Ceiling: ceiling and visibility are OK
Clouds: unknown
Weather: no significant weather observed at this time

METAR text: OIAA 240250Z 33004KT CAVOK 32/14 Q1002
Conditions at: OIAA (ABADAN INTL AIRP, IR) observed 0250 UTC 24 June 2019
Temperature: 32.0°C (90°F)
Dewpoint: 14.0°C (57°F) [RH = 34%]
Pressure (altimeter): 29.59 inches Hg (1002.0 mb)
Winds: from the NNW (330 degrees) at 5 MPH (4 knots; 2.1 m/s)
Visibility: 6 or more miles (10+ km)
Ceiling: ceiling and visibility are OK
Clouds: unknown
Weather: no significant weather observed at this time

METAR text: OIAA 240200Z 32006KT CAVOK 32/13 Q1001
Conditions at: OIAA (ABADAN INTL AIRP, IR) observed 0200 UTC 24 June 2019
Temperature: 32.0°C (90°F)
Dewpoint: 13.0°C (55°F) [RH = 32%]
Pressure (altimeter): 29.56 inches Hg (1001.0 mb)
Winds: from the NW (320 degrees) at 7 MPH (6 knots; 3.1 m/s)
Visibility: 6 or more miles (10+ km)
Ceiling: ceiling and visibility are OK
Clouds: unknown
Weather: no significant weather observed at this time

METAR text: OIAA 240150Z 32006KT CAVOK 32/13 Q1001
Conditions at: OIAA (ABADAN INTL AIRP, IR) observed 0150 UTC 24 June 2019
Temperature: 32.0°C (90°F)
Dewpoint: 13.0°C (55°F) [RH = 32%]
Pressure (altimeter): 29.56 inches Hg (1001.0 mb)
Winds: from the NW (320 degrees) at 7 MPH (6 knots; 3.1 m/s)
Visibility: 6 or more miles (10+ km)
Ceiling: ceiling and visibility are OK
Clouds: unknown
Weather: no significant weather observed at this time

METAR text: OIAA 240100Z 32006KT CAVOK 33/10 Q1001
Conditions at: OIAA (ABADAN INTL AIRP, IR) observed 0100 UTC 24 June 2019
Temperature: 33.0°C (91°F)
Dewpoint: 10.0°C (50°F) [RH = 24%]
Pressure (altimeter): 29.56 inches Hg (1001.0 mb)
Winds: from the NW (320 degrees) at 7 MPH (6 knots; 3.1 m/s)
Visibility: 6 or more miles (10+ km)
Ceiling: ceiling and visibility are OK
Clouds: unknown
Weather: no significant weather observed at this time

METAR text: OIAA 240050Z 32006KT CAVOK 33/10 Q1001
Conditions at: OIAA (ABADAN INTL AIRP, IR) observed 0050 UTC 24 June 2019
Temperature: 33.0°C (91°F)
Dewpoint: 10.0°C (50°F) [RH = 24%]
Pressure (altimeter): 29.56 inches Hg (1001.0 mb)
Winds: from the NW (320 degrees) at 7 MPH (6 knots; 3.1 m/s)
Visibility: 6 or more miles (10+ km)
Ceiling: ceiling and visibility are OK
Clouds: unknown
Weather: no significant weather observed at this time

METAR text: OIAA 240000Z 32004KT CAVOK 34/10 Q1001
Conditions at: OIAA (ABADAN INTL AIRP, IR) observed 0000 UTC 24 June 2019
Temperature: 34.0°C (93°F)
Dewpoint: 10.0°C (50°F) [RH = 23%]
Pressure (altimeter): 29.56 inches Hg (1001.0 mb)
Winds: from the NW (320 degrees) at 5 MPH (4 knots; 2.1 m/s)
Visibility: 6 or more miles (10+ km)
Ceiling: ceiling and visibility are OK
Clouds: unknown
Weather: no significant weather observed at this time

METAR text: OIAA 232350Z 32008KT CAVOK 34/10 Q1001
Conditions at: OIAA (ABADAN INTL AIRP, IR) observed 2350 UTC 23 June 2019
Temperature: 34.0°C (93°F)
Dewpoint: 10.0°C (50°F) [RH = 23%]
Pressure (altimeter): 29.56 inches Hg (1001.0 mb)
Winds: from the NW (320 degrees) at 9 MPH (8 knots; 4.1 m/s)
Visibility: 6 or more miles (10+ km)
Ceiling: ceiling and visibility are OK
Clouds: unknown
Weather: no significant weather observed at this time

Forecast for: OIAA (ABADAN INTL AIRP, IR)
Text: TAF OIAA 251130Z 2512/2618 31012KT 7000 NSC
Forecast period: 1200 UTC 25 June 2019 to 1800 UTC 26 June 2019
Forecast type: FROM: standard forecast or significant change
Winds: from the NW (310 degrees) at 14 MPH (12 knots; 6.2 m/s)
Visibility: 4 miles (7 km)
Ceiling: unknown
Clouds: missing
Weather: no significant weather forecast for this period